Time;durP1;ratioP1;P1;durP2;ratioP2;P2;SDS_P1;SDS_P2;PMS_P1;PMS_P2;Temp;Humidity;BMP_temperature;BMP_pressure;BME280_temperature;BME280_humidity;BME280_pressure;Samples;Min_cycle;Max_cycle;Signal;HPM_P1;HPM_P2
2022/06/08 00:00:04;;;;;;;;;;;;;;;-140.72;100.00;52607.97;6224367;23;19959;-67
2022/06/08 00:02:32;;;;;;;;;;;;;;;-140.72;100.00;52589.72;6223970;23;19927;-67
2022/06/08 00:04:57;;;;;;;;;;;;;;;-140.72;100.00;52610.00;6224823;23;19956;-67
2022/06/08 00:07:23;;;;;;;;;;;;;;;-140.72;100.00;52616.09;6225422;23;19912;-67
2022/06/08 00:09:48;;;;;;;;;;;;;;;-140.72;100.00;52640.44;6248126;23;20018;-67
2022/06/08 00:12:14;;;;;;;;;;;;;;;-140.72;100.00;52593.78;6225757;23;19916;-66
2022/06/08 00:14:39;;;;;;;;;;;;;;;-140.72;100.00;52618.13;6224599;23;19951;-67
2022/06/08 00:17:05;;;;;;;;;;;;;;;-140.72;100.00;52618.13;6223782;23;19987;-67
2022/06/08 00:19:30;;;;;;;;;;;;;;;-140.72;100.00;52614.06;6247666;23;20333;-67
2022/06/08 00:21:55;;;;;;;;;;;;;;;-140.72;100.00;52618.13;6223438;23;19912;-66
2022/06/08 00:24:21;;;;;;;;;;;;;;;-140.72;100.00;52565.38;6224454;23;19958;-66
2022/06/08 00:26:46;;;;;;;;;;;;;;;-140.72;100.00;52626.25;6249165;23;20098;-67
2022/06/08 00:29:12;;;;;;;;;;;;;;;-140.72;100.00;52587.69;6225445;23;19995;-69
2022/06/08 00:31:37;;;;;;;;;;;;;;;-140.72;100.00;52624.22;6226142;23;19931;-66
2022/06/08 00:34:02;;;;;;;;;;;;;;;-140.72;100.00;52632.34;6224791;23;19915;-67
2022/06/08 00:36:27;;;;;;;;;;;;;;;-140.72;100.00;52599.88;6224364;23;19912;-66
2022/06/08 00:38:53;;;;;;;;;;;;;;;-140.72;100.00;52650.59;6224670;23;19944;-66
2022/06/08 00:41:27;;;;;;;;;;;;;;;-140.72;100.00;52620.16;6225614;23;19916;-68
2022/06/08 00:43:53;;;;;;;;;;;;;;;-140.72;100.00;52612.03;6225358;23;19909;-66
2022/06/08 00:46:18;;;;;;;;;;;;;;;-140.72;100.00;52614.06;6225326;23;20384;-67
2022/06/08 00:48:47;;;;;;;;;;;;;;;-140.72;100.00;52622.19;6225304;23;19916;-67
2022/06/08 00:51:13;;;;;;;;;;;;;;;-140.72;100.00;52610.00;6226257;23;20286;-66
2022/06/08 00:53:45;;;;;;;;;;;;;;;-140.72;100.00;52644.50;6250046;23;19912;-67
2022/06/08 00:56:14;;;;;;;;;;;;;;;-140.72;100.00;52601.91;6249808;23;19912;-66
2022/06/08 00:58:39;;;;;;;;;;;;;;;-140.72;100.00;52654.66;6225603;23;19912;-68
2022/06/08 01:01:05;;;;;;;;;;;;;;;-140.72;100.00;52595.81;6250073;23;19943;-66
2022/06/08 01:03:30;;;;;;;;;;;;;;;-140.72;100.00;52575.50;6225922;23;19935;-66
2022/06/08 01:06:00;;;;;;;;;;;;;;;-140.72;100.00;52632.34;6226611;23;19912;-66
2022/06/08 01:08:28;;;;;;;;;;;;;;;-140.72;100.00;52593.78;6226615;23;19911;-66
2022/06/08 01:10:56;;;;;;;;;;;;;;;-140.72;100.00;52626.25;6225499;23;19915;-67
2022/06/08 01:13:22;;;;;;;;;;;;;;;-140.72;100.00;52622.19;6225890;23;20326;-68
2022/06/08 01:15:47;;;;;;;;;;;;;;;-140.72;100.00;52632.34;6224770;23;19923;-67
2022/06/08 01:18:12;;;;;;;;;;;;;;;-140.72;100.00;52605.94;6223846;23;19912;-68
2022/06/08 01:20:48;;;;;;;;;;;;;;;-140.72;100.00;52605.94;6226734;23;20329;-66
2022/06/08 01:23:14;;;;;;;;;;;;;;;-140.72;100.00;52628.28;6226335;23;20007;-66
2022/06/08 01:25:46;;;;;;;;;;;;;;;-140.72;100.00;52628.28;6226000;23;19912;-66
2022/06/08 01:28:21;;;;;;;;;;;;;;;-140.72;100.00;52614.06;6226544;23;19911;-67
2022/06/08 01:30:50;;;;;;;;;;;;;;;-140.72;100.00;52622.19;6226582;23;19926;-66
2022/06/08 01:33:38;;;;;;;;;;;;;;;-140.72;100.00;52601.91;6226715;23;19960;-67
2022/06/08 01:36:16;;;;;;;;;;;;;;;-140.72;100.00;52640.44;6218928;23;19920;-67
2022/06/08 01:39:03;;;;;;;;;;;;;;;-140.72;100.00;52614.06;6227749;23;19912;-67
2022/06/08 01:42:05;;;;;;;;;;;;;;;-140.72;100.00;52618.13;6248991;23;20175;-67
2022/06/08 01:44:41;;;;;;;;;;;;;;;-140.72;100.00;52601.91;6161167;23;19912;-66
2022/06/08 01:47:07;;;;;;;;;;;;;;;-140.72;100.00;52614.06;6216485;23;20396;-66
2022/06/08 01:50:07;;;;;;;;;;;;;;;-140.72;100.00;52561.31;6224858;23;19920;-66
2022/06/08 01:52:41;;;;;;;;;;;;;;;-140.72;100.00;52634.38;6160998;23;19916;-66
2022/06/08 01:55:29;;;;;;;;;;;;;;;-140.72;100.00;52650.59;6216041;23;19912;-66
2022/06/08 01:58:33;;;;;;;;;;;;;;;-140.72;100.00;52652.63;6225283;23;20333;-67
2022/06/08 02:01:18;;;;;;;;;;;;;;;-140.72;100.00;52630.31;6163646;23;20421;-67
2022/06/08 02:03:53;;;;;;;;;;;;;;;-140.72;100.00;52601.91;6138786;23;20064;-68
2022/06/08 02:06:25;;;;;;;;;;;;;;;-140.72;100.00;52638.41;6204812;23;19943;-66
2022/06/08 02:08:50;;;;;;;;;;;;;;;-140.72;100.00;52683.06;6248926;23;19955;-66
2022/06/08 02:11:23;;;;;;;;;;;;;;;-140.72;100.00;52658.72;6225843;23;19920;-66
2022/06/08 02:14:02;;;;;;;;;;;;;;;-140.72;100.00;52648.56;6249912;23;19926;-66
2022/06/08 02:16:31;;;;;;;;;;;;;;;-140.72;100.00;52632.34;6223993;23;19916;-66
2022/06/08 02:18:59;;;;;;;;;;;;;;;-140.72;100.00;52632.34;6223483;23;19956;-66
2022/06/08 02:21:32;;;;;;;;;;;;;;;-140.72;100.00;52664.81;6225710;23;19912;-67
2022/06/08 02:24:01;;;;;;;;;;;;;;;-140.72;100.00;52650.59;6225711;23;19919;-66
2022/06/08 02:26:38;;;;;;;;;;;;;;;-140.72;100.00;52650.59;6225515;23;20290;-67
2022/06/08 02:29:06;;;;;;;;;;;;;;;-140.72;100.00;52664.81;6225775;23;20038;-66
2022/06/08 02:31:35;;;;;;;;;;;;;;;-140.72;100.00;52622.19;6227297;23;19912;-65
2022/06/08 02:34:28;;;;;;;;;;;;;;;-140.72;100.00;52620.16;6247383;22;19923;-67
2022/06/08 02:36:56;;;;;;;;;;;;;;;-140.72;100.00;52642.47;6286513;22;19985;-66
2022/06/08 02:39:25;;;;;;;;;;;;;;;-140.72;100.00;52630.31;6258063;22;19985;-67
2022/06/08 02:41:52;;;;;;;;;;;;;;;-140.72;100.00;52644.50;6258175;22;19911;-67
2022/06/08 02:44:26;;;;;;;;;;;;;;;-140.72;100.00;52630.31;6285655;22;19915;-67
2022/06/08 02:46:59;;;;;;;;;;;;;;;-140.72;100.00;52652.63;6258800;22;19912;-67
2022/06/08 02:49:24;;;;;;;;;;;;;;;-140.72;100.00;52622.19;6286231;22;20245;-67
2022/06/08 02:51:51;;;;;;;;;;;;;;;-140.72;100.00;52670.88;6284855;22;19911;-67
2022/06/08 02:54:21;;;;;;;;;;;;;;;-140.72;100.00;52672.91;6285962;22;19911;-67
2022/06/08 02:57:05;;;;;;;;;;;;;;;-140.72;100.00;52654.66;6259582;22;20015;-66
2022/06/08 02:59:39;;;;;;;;;;;;;;;-140.72;100.00;52644.50;6286733;22;19964;-66
2022/06/08 03:02:04;;;;;;;;;;;;;;;-140.72;100.00;52662.78;6259568;22;19937;-67
2022/06/08 03:04:32;;;;;;;;;;;;;;;-140.72;100.00;52668.84;6258854;22;19946;-67
2022/06/08 03:07:00;;;;;;;;;;;;;;;-140.72;100.00;52654.66;6285902;22;19922;-66
2022/06/08 03:09:26;;;;;;;;;;;;;;;-140.72;100.00;52646.53;6285998;22;19922;-66
2022/06/08 03:11:55;;;;;;;;;;;;;;;-140.72;100.00;52636.38;6286508;22;19918;-67
2022/06/08 03:14:20;;;;;;;;;;;;;;;-140.72;100.00;52654.66;6258416;22;19986;-67
2022/06/08 03:16:57;;;;;;;;;;;;;;;-140.72;100.00;52646.53;6286139;22;19926;-67
2022/06/08 03:19:24;;;;;;;;;;;;;;;-140.72;100.00;52634.38;6286790;22;19933;-67
2022/06/08 03:21:49;;;;;;;;;;;;;;;-140.72;100.00;52664.81;6286005;22;19959;-67
2022/06/08 03:24:16;;;;;;;;;;;;;;;-140.72;100.00;52636.38;6286373;22;19911;-66
2022/06/08 03:26:46;;;;;;;;;;;;;;;-140.72;100.00;52632.34;6286723;22;19931;-67
2022/06/08 03:29:11;;;;;;;;;;;;;;;-140.72;100.00;52593.78;6283316;22;19911;-66
2022/06/08 03:31:37;;;;;;;;;;;;;;;-140.72;100.00;52670.88;6287040;22;20379;-67
2022/06/08 03:34:02;;;;;;;;;;;;;;;-140.72;100.00;52634.38;6285504;22;19954;-67
2022/06/08 03:36:27;;;;;;;;;;;;;;;-140.72;100.00;52640.44;6286232;22;19915;-67
2022/06/08 03:38:53;;;;;;;;;;;;;;;-140.72;100.00;52630.31;6285573;22;19911;-67
2022/06/08 03:41:18;;;;;;;;;;;;;;;-140.72;100.00;52646.53;6286497;22;20002;-66
2022/06/08 03:43:43;;;;;;;;;;;;;;;-140.72;100.00;52634.38;6285758;22;19934;-67
2022/06/08 03:46:10;;;;;;;;;;;;;;;-140.72;100.00;52636.38;6286091;22;19911;-67
2022/06/08 03:48:36;;;;;;;;;;;;;;;-140.72;100.00;52591.75;6286448;22;19919;-66
2022/06/08 03:51:01;;;;;;;;;;;;;;;-140.72;100.00;52648.56;6285750;22;19969;-67
2022/06/08 03:53:33;;;;;;;;;;;;;;;-140.72;100.00;52642.47;6284760;22;20291;-67
2022/06/08 03:56:01;;;;;;;;;;;;;;;-140.72;100.00;52610.00;6284330;22;20410;-66
2022/06/08 03:58:26;;;;;;;;;;;;;;;-140.72;100.00;52636.38;6286217;22;19915;-67
2022/06/08 04:00:52;;;;;;;;;;;;;;;-140.72;100.00;52634.38;6258646;22;20359;-67
2022/06/08 04:03:18;;;;;;;;;;;;;;;-140.72;100.00;52630.31;6258334;22;19922;-67
2022/06/08 04:05:43;;;;;;;;;;;;;;;-140.72;100.00;52620.16;6259164;22;19963;-66
2022/06/08 04:08:09;;;;;;;;;;;;;;;-140.72;100.00;52638.41;6259534;22;19911;-67
2022/06/08 04:10:35;;;;;;;;;;;;;;;-140.72;100.00;52658.72;6286337;22;19930;-67
2022/06/08 04:13:00;;;;;;;;;;;;;;;-140.72;100.00;52597.84;6287324;22;19961;-69
2022/06/08 04:15:44;;;;;;;;;;;;;;;-140.72;100.00;52624.22;6287711;22;19911;-71
2022/06/08 04:18:10;;;;;;;;;;;;;;;-140.72;100.00;52622.19;6290501;22;19911;-67
2022/06/08 04:20:38;;;;;;;;;;;;;;;-140.72;100.00;52618.13;6290301;22;19911;-67
2022/06/08 04:23:04;;;;;;;;;;;;;;;-140.72;100.00;52634.38;6290356;22;19911;-67
2022/06/08 04:25:30;;;;;;;;;;;;;;;-140.72;100.00;52624.22;6289581;22;19954;-68
2022/06/08 04:27:56;;;;;;;;;;;;;;;-140.72;100.00;52626.25;6288106;22;19917;-67
2022/06/08 04:30:21;;;;;;;;;;;;;;;-140.72;100.00;52612.03;6260321;22;19912;-67
2022/06/08 04:32:47;;;;;;;;;;;;;;;-140.72;100.00;52636.38;6286464;22;19912;-68
2022/06/08 04:35:13;;;;;;;;;;;;;;;-140.72;100.00;52640.44;6255475;22;19915;-67
2022/06/08 04:37:39;;;;;;;;;;;;;;;-140.72;100.00;52595.81;6256020;22;20257;-67
2022/06/08 04:40:07;;;;;;;;;;;;;;;-140.72;100.00;52626.25;6255578;22;19916;-67
2022/06/08 04:42:32;;;;;;;;;;;;;;;-140.72;100.00;52575.50;6257535;22;19915;-67
2022/06/08 04:44:58;;;;;;;;;;;;;;;-140.72;100.00;52650.59;6260501;23;19919;-67
2022/06/08 04:47:23;;;;;;;;;;;;;;;-140.72;100.00;52610.00;6259908;22;19947;-73
2022/06/08 04:49:48;;;;;;;;;;;;;;;-140.72;100.00;52642.47;6263656;23;19934;-67
2022/06/08 04:52:13;;;;;;;;;;;;;;;-140.72;100.00;52630.31;6258865;23;19911;-68
2022/06/08 04:54:39;;;;;;;;;;;;;;;-140.72;100.00;52656.69;6263974;23;19912;-69
2022/06/08 04:57:04;;;;;;;;;;;;;;;-140.72;100.00;52610.00;6259079;23;20196;-66
2022/06/08 04:59:29;;;;;;;;;;;;;;;-140.72;100.00;52630.31;6253486;22;19915;-67
2022/06/08 05:01:55;;;;;;;;;;;;;;;-140.72;100.00;52610.00;6253825;23;19912;-68
2022/06/08 05:04:20;;;;;;;;;;;;;;;-140.72;100.00;52636.38;6253975;23;19931;-72
2022/06/08 05:06:47;;;;;;;;;;;;;;;-140.72;100.00;52593.78;6251713;23;19965;-68
2022/06/08 05:09:13;;;;;;;;;;;;;;;-140.72;100.00;52581.59;6254527;22;19912;-68
2022/06/08 05:11:38;;;;;;;;;;;;;;;-140.72;100.00;52630.31;6254113;23;19918;-67
2022/06/08 05:14:03;;;;;;;;;;;;;;;-140.72;100.00;52567.41;6255651;23;19916;-67
2022/06/08 05:16:28;;;;;;;;;;;;;;;-140.72;100.00;52591.75;6253756;23;19942;-66
2022/06/08 05:18:54;;;;;;;;;;;;;;;-140.72;100.00;52573.50;6253821;23;19918;-67
2022/06/08 05:21:19;;;;;;;;;;;;;;;-140.72;100.00;52612.03;6253283;23;19912;-66
2022/06/08 05:23:45;;;;;;;;;;;;;;;-140.72;100.00;52597.84;6254910;22;19912;-67
2022/06/08 05:26:12;;;;;;;;;;;;;;;-140.72;100.00;52624.22;6253556;23;20235;-67
2022/06/08 05:28:37;;;;;;;;;;;;;;;-140.72;100.00;52581.59;6256024;22;19911;-67
2022/06/08 05:31:03;;;;;;;;;;;;;;;-140.72;100.00;52644.50;6254467;23;19986;-67
2022/06/08 05:33:28;;;;;;;;;;;;;;;-140.72;100.00;52587.69;6259640;22;19915;-67
2022/06/08 05:35:54;;;;;;;;;;;;;;;-140.72;100.00;52626.25;6284278;22;20301;-68
2022/06/08 05:38:19;;;;;;;;;;;;;;;-140.72;100.00;52605.94;6284808;22;19935;-68
2022/06/08 05:40:45;;;;;;;;;;;;;;;-140.72;100.00;52603.94;6257441;22;19947;-67
2022/06/08 05:43:11;;;;;;;;;;;;;;;-140.72;100.00;52607.97;6285868;22;19911;-68
2022/06/08 05:45:38;;;;;;;;;;;;;;;-140.72;100.00;52599.88;6284927;22;19934;-67
2022/06/08 05:48:04;;;;;;;;;;;;;;;-140.72;100.00;52610.00;6284150;22;20189;-66
2022/06/08 05:50:30;;;;;;;;;;;;;;;-140.72;100.00;52557.25;6284474;22;19911;-67
2022/06/08 05:52:55;;;;;;;;;;;;;;;-140.72;100.00;52595.81;6285538;22;19919;-68
2022/06/08 05:55:21;;;;;;;;;;;;;;;-140.72;100.00;52561.31;6298605;22;19926;-70
2022/06/08 05:57:47;;;;;;;;;;;;;;;-140.72;100.00;52551.16;6275011;22;19912;-67
2022/06/08 06:00:15;;;;;;;;;;;;;;;-140.72;100.00;52585.66;6274442;22;19919;-70
2022/06/08 06:02:40;;;;;;;;;;;;;;;-140.72;100.00;52561.31;6299834;22;19919;-67
2022/06/08 06:05:06;;;;;;;;;;;;;;;-140.72;100.00;52583.63;6298253;22;20225;-67
2022/06/08 06:07:31;;;;;;;;;;;;;;;-140.72;100.00;52553.19;6295540;22;19911;-68
2022/06/08 06:10:02;;;;;;;;;;;;;;;-140.72;100.00;52571.47;6272211;22;20005;-71
2022/06/08 06:12:27;;;;;;;;;;;;;;;-140.72;100.00;52587.69;6275461;22;19921;-69
2022/06/08 06:14:56;;;;;;;;;;;;;;;-140.72;100.00;52549.13;6289497;22;19911;-66
2022/06/08 06:17:22;;;;;;;;;;;;;;;-140.72;100.00;52532.91;6261377;22;19912;-66
2022/06/08 06:19:47;;;;;;;;;;;;;;;-140.72;100.00;52565.38;6286542;22;19915;-65
2022/06/08 06:22:13;;;;;;;;;;;;;;;-140.72;100.00;52559.28;6285474;22;19915;-66
2022/06/08 06:24:38;;;;;;;;;;;;;;;-140.72;100.00;52539.00;6285452;22;19911;-66
2022/06/08 06:27:04;;;;;;;;;;;;;;;-140.72;100.00;52526.81;6283957;22;20343;-65
2022/06/08 06:29:29;;;;;;;;;;;;;;;-140.72;100.00;52543.03;6284274;22;19994;-66
2022/06/08 06:31:56;;;;;;;;;;;;;;;-140.72;100.00;52539.00;6285218;22;19918;-66
2022/06/08 06:34:23;;;;;;;;;;;;;;;-140.72;100.00;52484.19;6289108;22;19959;-66
2022/06/08 06:36:49;;;;;;;;;;;;;;;-140.72;100.00;52512.59;6290648;22;19915;-68
2022/06/08 06:39:14;;;;;;;;;;;;;;;-140.72;100.00;52577.53;6282705;22;19945;-66
2022/06/08 06:41:39;;;;;;;;;;;;;;;-140.72;100.00;52571.47;6283389;22;20298;-66
2022/06/08 06:44:05;;;;;;;;;;;;;;;-140.72;100.00;52559.28;6282246;22;20229;-65
2022/06/08 06:46:30;;;;;;;;;;;;;;;-140.72;100.00;52577.53;6283358;22;19977;-67
2022/06/08 06:48:55;;;;;;;;;;;;;;;-140.72;100.00;52551.16;6283882;22;20299;-66
2022/06/08 06:51:21;;;;;;;;;;;;;;;-140.72;100.00;52547.09;6292069;22;19956;-67
2022/06/08 06:53:46;;;;;;;;;;;;;;;-140.72;100.00;52557.25;6291390;22;20325;-65
2022/06/08 06:56:12;;;;;;;;;;;;;;;-140.72;100.00;52567.41;6289379;22;19911;-66
2022/06/08 06:58:37;;;;;;;;;;;;;;;-140.72;100.00;52583.63;6261575;22;19915;-66
2022/06/08 07:01:03;;;;;;;;;;;;;;;-140.72;100.00;52541.03;6287091;22;20311;-66
2022/06/08 07:03:29;;;;;;;;;;;;;;;-140.72;100.00;52524.78;6286574;22;19911;-67
2022/06/08 07:05:55;;;;;;;;;;;;;;;-140.72;100.00;52569.44;6287575;22;19938;-66
2022/06/08 07:08:20;;;;;;;;;;;;;;;-140.72;100.00;52536.97;6286505;22;20289;-66
2022/06/08 07:11:32;;;;;;;;;;;;;;;-140.72;100.00;52534.94;6284913;22;19915;-66
2022/06/08 07:13:31;;;;;;;;;;;;;;;-140.72;100.00;52518.69;6285800;22;20241;-67
2022/06/08 07:15:56;;;;;;;;;;;;;;;-140.72;100.00;52524.78;6284095;22;19957;-66
2022/06/08 07:18:21;;;;;;;;;;;;;;;-140.72;100.00;52532.91;6256754;22;20218;-66
2022/06/08 07:20:46;;;;;;;;;;;;;;;-140.72;100.00;52526.81;6285318;22;19959;-66
2022/06/08 07:23:12;;;;;;;;;;;;;;;-140.72;100.00;52508.56;6258114;22;19911;-67
2022/06/08 07:25:37;;;;;;;;;;;;;;;-140.72;100.00;52512.59;6284825;22;19942;-66
2022/06/08 07:28:02;;;;;;;;;;;;;;;-140.72;100.00;52488.25;6284600;22;19990;-66
2022/06/08 07:30:27;;;;;;;;;;;;;;;-140.72;100.00;52498.41;6283359;22;19912;-67
2022/06/08 07:32:53;;;;;;;;;;;;;;;-140.72;100.00;52447.69;6284502;22;20325;-65
2022/06/08 07:35:18;;;;;;;;;;;;;;;-140.72;100.00;52476.09;6282908;22;20247;-66
2022/06/08 07:37:43;;;;;;;;;;;;;;;-140.72;100.00;52504.50;6284545;22;19958;-66
2022/06/08 07:40:09;;;;;;;;;;;;;;;-140.72;100.00;52504.50;6287472;22;20286;-68
2022/06/08 07:42:37;;;;;;;;;;;;;;;-140.72;100.00;52496.38;6288820;22;19963;-69
2022/06/08 07:45:02;;;;;;;;;;;;;;;-140.72;100.00;52459.84;6289079;22;19915;-68
2022/06/08 07:47:28;;;;;;;;;;;;;;;-140.72;100.00;52512.59;6286160;22;19919;-68
2022/06/08 07:49:53;;;;;;;;;;;;;;;-140.72;100.00;52547.09;6285207;22;19955;-68
2022/06/08 07:52:19;;;;;;;;;;;;;;;-140.72;100.00;52504.50;6281657;22;19934;-69
2022/06/08 07:54:46;;;;;;;;;;;;;;;-140.72;100.00;52480.16;6254797;22;19918;-69
2022/06/08 07:57:13;;;;;;;;;;;;;;;-140.72;100.00;52512.59;6252525;22;19934;-69
2022/06/08 07:59:38;;;;;;;;;;;;;;;-140.72;100.00;52488.25;6280541;22;19923;-68
2022/06/08 08:02:05;;;;;;;;;;;;;;;-140.72;100.00;52451.72;6288065;22;19911;-68
2022/06/08 08:04:30;;;;;;;;;;;;;;;-140.72;100.00;52421.28;6293168;22;19938;-68
2022/06/08 08:06:55;;;;;;;;;;;;;;;-140.72;100.00;52459.84;6293672;22;19911;-69
2022/06/08 08:09:22;;;;;;;;;;;;;;;-140.72;100.00;52413.19;6291123;22;19939;-68
2022/06/08 08:11:51;;;;;;;;;;;;;;;-140.72;100.00;52394.91;6285959;22;19911;-69
2022/06/08 08:14:21;;;;;;;;;;;;;;;-140.72;100.00;52403.03;6292899;22;19911;-69
2022/06/08 08:16:46;;;;;;;;;;;;;;;-140.72;100.00;52455.78;6284258;22;19911;-67
2022/06/08 08:19:13;;;;;;;;;;;;;;;-140.72;100.00;52447.69;6284839;22;19964;-67
2022/06/08 08:21:38;;;;;;;;;;;;;;;-140.72;100.00;52453.75;6284131;22;19915;-66
2022/06/08 08:24:04;;;;;;;;;;;;;;;-140.72;100.00;52394.91;6285076;22;20261;-67
2022/06/08 08:26:30;;;;;;;;;;;;;;;-140.72;100.00;52407.09;6284094;22;19918;-66
2022/06/08 08:28:55;;;;;;;;;;;;;;;-140.72;100.00;52437.53;6283936;22;19911;-68
2022/06/08 08:31:20;;;;;;;;;;;;;;;-140.72;100.00;52386.81;6283468;22;19918;-67
2022/06/08 08:33:45;;;;;;;;;;;;;;;-140.72;100.00;52390.84;6284423;22;19916;-67
2022/06/08 08:36:11;;;;;;;;;;;;;;;-140.72;100.00;52421.28;6283651;22;20356;-67
2022/06/08 08:38:37;;;;;;;;;;;;;;;-140.72;100.00;52409.13;6284019;22;19911;-67
2022/06/08 08:41:03;;;;;;;;;;;;;;;-140.72;100.00;52433.47;6284194;22;19934;-67
2022/06/08 08:43:31;;;;;;;;;;;;;;;-140.72;100.00;52419.28;6284786;22;19915;-67
2022/06/08 08:46:06;;;;;;;;;;;;;;;-140.72;100.00;52403.03;6258986;22;19912;-67
2022/06/08 08:48:37;;;;;;;;;;;;;;;-140.72;100.00;52415.22;6285966;22;20340;-67
2022/06/08 08:51:17;;;;;;;;;;;;;;;-140.72;100.00;52429.41;6285456;22;19911;-65
2022/06/08 08:53:48;;;;;;;;;;;;;;;-140.72;100.00;52433.47;6286187;22;19934;-67
2022/06/08 08:56:15;;;;;;;;;;;;;;;-140.72;100.00;52480.16;6286205;22;19918;-67
2022/06/08 08:58:42;;;;;;;;;;;;;;;-140.72;100.00;52447.69;6286364;22;19911;-67
2022/06/08 09:01:27;;;;;;;;;;;;;;;-140.72;100.00;52465.94;6259828;22;19981;-67
2022/06/08 09:04:11;;;;;;;;;;;;;;;-140.72;100.00;52484.19;6285921;22;19911;-66
2022/06/08 09:06:36;;;;;;;;;;;;;;;-140.72;100.00;52459.84;6286222;22;19912;-67
2022/06/08 09:09:05;;;;;;;;;;;;;;;-140.72;100.00;52484.19;6286994;22;19918;-67
2022/06/08 09:11:36;;;;;;;;;;;;;;;-140.72;100.00;52514.63;6286839;22;19918;-67
2022/06/08 09:14:04;;;;;;;;;;;;;;;-140.72;100.00;52484.19;6286421;22;19911;-67
2022/06/08 09:16:35;;;;;;;;;;;;;;;-140.72;100.00;52482.16;6285593;22;19957;-67
2022/06/08 09:19:02;;;;;;;;;;;;;;;-140.72;100.00;52508.56;6285948;22;19911;-67
2022/06/08 09:21:27;;;;;;;;;;;;;;;-140.72;100.00;52524.78;6258521;22;19919;-67
2022/06/08 09:23:58;;;;;;;;;;;;;;;-140.72;100.00;52528.84;6286019;22;20252;-67
2022/06/08 09:26:23;;;;;;;;;;;;;;;-140.72;100.00;52539.00;6286240;22;19911;-67
2022/06/08 09:28:56;;;;;;;;;;;;;;;-140.72;100.00;52524.78;6285406;22;19933;-67
2022/06/08 09:31:26;;;;;;;;;;;;;;;-140.72;100.00;52532.91;6258167;22;19911;-67
2022/06/08 09:34:03;;;;;;;;;;;;;;;-140.72;100.00;52536.97;6284691;22;19990;-66
2022/06/08 09:36:28;;;;;;;;;;;;;;;-140.72;100.00;52549.13;6258188;22;19915;-66
2022/06/08 09:38:54;;;;;;;;;;;;;;;-140.72;100.00;52536.97;6286317;22;19918;-66
2022/06/08 09:41:36;;;;;;;;;;;;;;;-140.72;100.00;52561.31;6258461;22;19954;-67
2022/06/08 09:44:07;;;;;;;;;;;;;;;-140.72;100.00;52549.13;6287206;22;19911;-66
2022/06/08 09:52:30;;;;;;;;;;;;;;;-140.72;100.00;52589.72;6286351;22;19958;-66
2022/06/08 09:55:14;;;;;;;;;;;;;;;-140.72;100.00;52565.38;6286222;22;19911;-66
2022/06/08 09:57:43;;;;;;;;;;;;;;;-140.72;100.00;52583.63;6259054;22;19935;-66
2022/06/08 10:00:17;;;;;;;;;;;;;;;-140.72;100.00;52591.75;6261375;22;20002;-66
2022/06/08 10:02:45;;;;;;;;;;;;;;;-140.72;100.00;52589.72;6288222;22;19912;-66
2022/06/08 10:05:12;;;;;;;;;;;;;;;-140.72;100.00;52585.66;6287510;22;19917;-66
2022/06/08 10:07:52;;;;;;;;;;;;;;;-140.72;100.00;52565.38;6260326;22;19923;-66
2022/06/08 10:10:21;;;;;;;;;;;;;;;-140.72;100.00;52583.63;6287579;22;19922;-66
2022/06/08 10:12:55;;;;;;;;;;;;;;;-140.72;100.00;52589.72;6261215;22;19934;-66
2022/06/08 10:15:34;;;;;;;;;;;;;;;-140.72;100.00;52585.66;6288749;22;19927;-66
2022/06/08 10:18:08;;;;;;;;;;;;;;;-140.72;100.00;52640.44;6289224;22;19935;-66
2022/06/08 10:20:55;;;;;;;;;;;;;;;-140.72;100.00;52630.31;6262326;22;19934;-66
2022/06/08 10:23:39;;;;;;;;;;;;;;;-140.72;100.00;52610.00;6263086;22;19922;-66
2022/06/08 10:26:23;;;;;;;;;;;;;;;-140.72;100.00;52634.38;6292204;22;19919;-65
2022/06/08 10:28:52;;;;;;;;;;;;;;;-140.72;100.00;52595.81;6292283;22;19918;-66
2022/06/08 10:31:24;;;;;;;;;;;;;;;-140.72;100.00;52577.53;6264814;22;19920;-65
2022/06/08 10:34:05;;;;;;;;;;;;;;;-140.72;100.00;52616.09;6290942;22;19916;-67
2022/06/08 10:36:31;;;;;;;;;;;;;;;-140.72;100.00;52620.16;6263715;22;19911;-65
2022/06/08 10:38:59;;;;;;;;;;;;;;;-140.72;100.00;52573.50;6291015;22;19911;-66
2022/06/08 10:44:24;;;;;;;;;;;;;;;-140.72;100.00;52591.75;6292414;22;19918;-65
2022/06/08 10:46:51;;;;;;;;;;;;;;;-140.72;100.00;52612.03;6290520;22;19962;-65
2022/06/08 10:49:19;;;;;;;;;;;;;;;-140.72;100.00;52601.91;6291581;22;19951;-66
2022/06/08 10:51:44;;;;;;;;;;;;;;;-140.72;100.00;52607.97;6290801;22;19911;-66
2022/06/08 10:57:31;;;;;;;;;;;;;;;-140.72;100.00;52628.28;6290394;22;19914;-65
2022/06/08 11:00:22;;;;;;;;;;;;;;;-140.72;100.00;52620.16;6289827;22;19918;-65
2022/06/08 11:02:53;;;;;;;;;;;;;;;-140.72;100.00;52634.38;6290554;22;19946;-66
2022/06/08 11:05:28;;;;;;;;;;;;;;;-140.72;100.00;52581.59;6290077;22;19915;-65
2022/06/08 11:08:00;;;;;;;;;;;;;;;-140.72;100.00;52642.47;6291056;22;19980;-65
2022/06/08 11:10:54;;;;;;;;;;;;;;;-140.72;100.00;52589.72;6263438;22;19911;-66
2022/06/08 11:13:25;;;;;;;;;;;;;;;-140.72;100.00;52589.72;6291081;22;19921;-66
2022/06/08 11:15:53;;;;;;;;;;;;;;;-140.72;100.00;52614.06;6289177;22;19997;-65
2022/06/08 11:18:21;;;;;;;;;;;;;;;-140.72;100.00;52650.59;6289241;22;19911;-65
2022/06/08 11:21:16;;;;;;;;;;;;;;;-140.72;100.00;52630.31;6262412;22;19911;-64
2022/06/08 11:23:41;;;;;;;;;;;;;;;-140.72;100.00;52666.84;6236424;22;19911;-65
2022/06/08 11:26:13;;;;;;;;;;;;;;;-140.72;100.00;52626.25;6289398;22;19923;-64
2022/06/08 11:28:43;;;;;;;;;;;;;;;-140.72;100.00;52612.03;6289153;22;19919;-64
2022/06/08 11:31:28;;;;;;;;;;;;;;;-140.72;100.00;52638.41;6288669;22;19938;-65
2022/06/08 11:34:10;;;;;;;;;;;;;;;-140.72;100.00;52618.13;6288965;22;19922;-64
2022/06/08 11:36:55;;;;;;;;;;;;;;;-140.72;100.00;52626.25;6288202;22;19918;-64
2022/06/08 11:39:40;;;;;;;;;;;;;;;-140.72;100.00;52601.91;6289224;22;19957;-65
2022/06/08 11:42:08;;;;;;;;;;;;;;;-140.72;100.00;52610.00;6289480;22;19911;-64
2022/06/08 11:44:34;;;;;;;;;;;;;;;-140.72;100.00;52630.31;6263340;22;19911;-65
2022/06/08 11:47:14;;;;;;;;;;;;;;;-140.72;100.00;52591.75;6288838;22;19911;-66
2022/06/08 11:49:42;;;;;;;;;;;;;;;-140.72;100.00;52622.19;6290032;22;19922;-65
2022/06/08 11:52:26;;;;;;;;;;;;;;;-140.72;100.00;52573.50;6289434;22;19919;-64
2022/06/08 11:55:00;;;;;;;;;;;;;;;-140.72;100.00;52626.25;6289406;22;19922;-66
2022/06/08 11:57:26;;;;;;;;;;;;;;;-140.72;100.00;52630.31;6262937;22;20002;-65
2022/06/08 11:59:55;;;;;;;;;;;;;;;-140.72;100.00;52614.06;6260819;22;20189;-65
2022/06/08 12:02:26;;;;;;;;;;;;;;;-140.72;100.00;52618.13;6289078;22;19911;-64
2022/06/08 12:04:56;;;;;;;;;;;;;;;-140.72;100.00;52634.38;6289045;22;19912;-64
2022/06/08 12:07:25;;;;;;;;;;;;;;;-140.72;100.00;52593.78;6287820;22;19917;-65
2022/06/08 12:09:50;;;;;;;;;;;;;;;-140.72;100.00;52597.84;6289271;22;19911;-64
2022/06/08 12:12:24;;;;;;;;;;;;;;;-140.72;100.00;52638.41;6288096;22;20017;-64
2022/06/08 12:14:50;;;;;;;;;;;;;;;-140.72;100.00;52601.91;6289445;22;19917;-65
2022/06/08 12:17:15;;;;;;;;;;;;;;;-140.72;100.00;52591.75;6288325;22;19930;-65
2022/06/08 12:19:43;;;;;;;;;;;;;;;-140.72;100.00;52591.75;6261564;22;19942;-66
2022/06/08 12:22:18;;;;;;;;;;;;;;;-140.72;100.00;52612.03;6287881;22;19986;-64
2022/06/08 12:24:45;;;;;;;;;;;;;;;-140.72;100.00;52626.25;6289155;22;20344;-64
2022/06/08 12:27:17;;;;;;;;;;;;;;;-140.72;100.00;52622.19;6288629;22;19965;-64
2022/06/08 12:29:52;;;;;;;;;;;;;;;-140.72;100.00;52618.13;6287349;22;19916;-66
2022/06/08 12:32:22;;;;;;;;;;;;;;;-140.72;100.00;52616.09;6289382;22;19911;-65
2022/06/08 12:34:47;;;;;;;;;;;;;;;-140.72;100.00;52597.84;6288196;22;19962;-64
2022/06/08 12:37:28;;;;;;;;;;;;;;;-140.72;100.00;52622.19;6288559;22;19916;-65
2022/06/08 12:39:54;;;;;;;;;;;;;;;-140.72;100.00;52605.94;6288481;22;19915;-65